Time;durP1;ratioP1;P1;durP2;ratioP2;P2;SDS_P1;SDS_P2;PMS_P1;PMS_P2;Temp;Humidity;BMP_temperature;BMP_pressure;BME280_temperature;BME280_humidity;BME280_pressure;Samples;Min_cycle;Max_cycle;Signal;HPM_P1;HPM_P2
2022/09/30 00:02:49;;;;;;;19.90;13.47;;;;;7.20;100279.00;;;;13089143;22;20160;-76
2022/09/30 00:07:50;;;;;;;23.67;13.63;;;;;7.20;100280.00;;;;13040510;22;20182;-76
2022/09/30 00:12:52;;;;;;;22.63;13.17;;;;;7.20;100273.00;;;;13086541;22;20266;-76
2022/09/30 00:17:53;;;;;;;18.13;13.40;;;;;7.10;100282.00;;;;13040685;22;20201;-76
2022/09/30 00:22:54;;;;;;;21.27;14.20;;;;;7.00;100275.00;;;;13066795;22;20172;-76
2022/09/30 00:27:55;;;;;;;19.40;12.70;;;;;6.90;100278.00;;;;13040560;22;20167;-76
2022/09/30 00:32:57;;;;;;;20.53;13.53;;;;;6.90;100283.00;;;;13062201;22;20720;-76
2022/09/30 00:37:59;;;;;;;15.90;12.37;;;;;6.90;100288.00;;;;13062449;22;20236;-76
2022/09/30 00:43:00;;;;;;;18.73;12.63;;;;;6.80;100279.00;;;;13040588;22;20168;-76
2022/09/30 00:48:07;;;;;;;19.67;12.83;;;;;6.80;100278.00;;;;13063307;22;20159;-76
2022/09/30 00:53:33;;;;;;;16.77;12.93;;;;;6.70;100288.00;;;;13040717;22;20711;-76
2022/09/30 00:58:39;;;;;;;18.17;12.63;;;;;6.70;100291.00;;;;13062277;22;20198;-76
2022/09/30 01:04:03;;;;;;;17.57;12.60;;;;;6.60;100281.00;;;;13041710;22;20166;-74
2022/09/30 01:09:04;;;;;;;17.63;13.23;;;;;6.50;100295.00;;;;13088320;22;20210;-73
2022/09/30 01:14:12;;;;;;;17.47;12.63;;;;;6.40;100286.00;;;;13112851;22;20159;-73
2022/09/30 01:19:28;;;;;;;16.60;12.67;;;;;6.40;100283.00;;;;13061532;22;20180;-73
2022/09/30 01:25:06;;;;;;;19.73;13.43;;;;;6.40;100286.00;;;;13040060;22;20742;-73
2022/09/30 01:30:39;;;;;;;18.40;14.53;;;;;6.40;100296.00;;;;13035222;22;20160;-72
2022/09/30 01:35:50;;;;;;;22.53;14.57;;;;;6.50;100303.00;;;;13059925;22;20190;-73
2022/09/30 01:41:00;;;;;;;17.53;13.50;;;;;6.40;100286.00;;;;13086883;22;20682;-73
2022/09/30 01:46:04;;;;;;;22.20;13.30;;;;;6.40;100287.00;;;;13064073;22;20622;-73
2022/09/30 01:51:11;;;;;;;24.50;15.20;;;;;6.30;100286.00;;;;13017841;22;20703;-73
2022/09/30 01:56:23;;;;;;;18.47;14.30;;;;;6.30;100282.00;;;;13089164;22;20267;-73
2022/09/30 02:01:33;;;;;;;17.20;14.37;;;;;6.30;100277.00;;;;13040607;22;20178;-73
2022/09/30 02:06:40;;;;;;;21.47;15.43;;;;;6.30;100279.00;;;;13042938;22;20267;-73
2022/09/30 02:11:42;;;;;;;22.70;16.83;;;;;6.30;100295.00;;;;13088494;22;20187;-73
2022/09/30 02:16:51;;;;;;;21.40;17.23;;;;;6.20;100304.00;;;;13068645;22;20228;-73
2022/09/30 02:22:28;;;;;;;24.77;16.23;;;;;6.20;100296.00;;;;13042411;22;20262;-73
2022/09/30 02:27:41;;;;;;;22.63;17.53;;;;;6.20;100292.00;;;;13013991;22;20613;-73
2022/09/30 02:32:51;;;;;;;23.60;16.80;;;;;6.10;100289.00;;;;13089557;22;20194;-73
2022/09/30 02:37:58;;;;;;;26.10;17.07;;;;;6.10;100298.00;;;;13063635;22;20349;-73
2022/09/30 02:42:59;;;;;;;21.97;16.67;;;;;6.10;100289.00;;;;13016151;22;20270;-73
2022/09/30 02:48:19;;;;;;;21.50;16.47;;;;;6.00;100291.00;;;;13062292;22;20156;-73
2022/09/30 02:53:30;;;;;;;23.77;17.33;;;;;6.00;100284.00;;;;13088357;22;20156;-73
2022/09/30 02:58:35;;;;;;;26.00;17.60;;;;;6.10;100290.00;;;;13042511;22;20269;-73
2022/09/30 03:03:50;;;;;;;25.13;17.33;;;;;6.10;100292.00;;;;13067329;22;20172;-73
2022/09/30 03:08:52;;;;;;;27.93;19.00;;;;;6.10;100296.00;;;;13089232;22;20706;-73
2022/09/30 03:14:05;;;;;;;27.60;19.93;;;;;6.10;100305.00;;;;13042052;22;20163;-73
2022/09/30 03:19:16;;;;;;;27.93;19.73;;;;;6.20;100314.00;;;;13063478;22;20866;-73
2022/09/30 03:24:26;;;;;;;27.93;18.23;;;;;6.10;100319.00;;;;13015808;22;20491;-73
2022/09/30 03:29:30;;;;;;;26.57;19.20;;;;;6.10;100316.00;;;;13061132;22;20168;-73
2022/09/30 03:34:48;;;;;;;34.00;20.10;;;;;6.10;100323.00;;;;13067982;22;20164;-73
2022/09/30 03:39:58;;;;;;;30.47;20.33;;;;;6.10;100336.00;;;;13066994;22;20194;-73
2022/09/30 03:45:07;;;;;;;29.50;20.23;;;;;6.10;100335.00;;;;13041218;22;20168;-73
2022/09/30 03:50:13;;;;;;;27.23;19.17;;;;;6.00;100334.00;;;;13115879;22;20787;-73
2022/09/30 03:55:16;;;;;;;29.87;20.03;;;;;6.00;100337.00;;;;13038289;22;20192;-73
2022/09/30 04:00:17;;;;;;;28.20;19.93;;;;;5.90;100343.00;;;;13040798;22;20183;-73
2022/09/30 04:05:19;;;;;;;29.07;20.03;;;;;5.90;100354.00;;;;13042385;22;20266;-73
2022/09/30 04:10:20;;;;;;;29.43;19.23;;;;;5.80;100350.00;;;;13016334;22;20192;-73
2022/09/30 04:15:21;;;;;;;105.00;59.00;;;;;5.80;100371.00;;;;13062669;22;20183;-73
2022/09/30 04:20:23;;;;;;;39.03;25.10;;;;;5.70;100380.00;;;;13114233;22;20163;-73
2022/09/30 04:25:25;;;;;;;31.00;20.20;;;;;5.70;100369.00;;;;13041066;22;20190;-73
2022/09/30 04:30:27;;;;;;;30.70;19.47;;;;;5.80;100379.00;;;;13089562;22;20163;-73
2022/09/30 04:35:36;;;;;;;27.17;19.20;;;;;5.80;100377.00;;;;13039938;22;20195;-73
2022/09/30 04:40:37;;;;;;;31.03;20.20;;;;;5.90;100379.00;;;;13066605;22;20232;-73
2022/09/30 04:45:43;;;;;;;33.17;21.57;;;;;5.90;100375.00;;;;13040041;22;20238;-73
2022/09/30 04:50:44;;;;;;;33.83;20.27;;;;;5.90;100383.00;;;;13060593;22;20166;-73
2022/09/30 04:55:45;;;;;;;31.00;21.70;;;;;5.90;100391.00;;;;13040047;22;20205;-73
2022/09/30 05:00:47;;;;;;;38.60;24.23;;;;;6.00;100398.00;;;;12991184;22;20614;-72
2022/09/30 05:05:48;;;;;;;39.17;24.20;;;;;6.00;100398.00;;;;13039237;22;20182;-73
2022/09/30 05:10:57;;;;;;;46.00;24.27;;;;;5.90;100391.00;;;;13016210;22;20803;-73
2022/09/30 05:15:59;;;;;;;42.33;26.27;;;;;5.90;100400.00;;;;13038137;22;20191;-73
2022/09/30 05:21:02;;;;;;;43.17;27.03;;;;;6.00;100421.00;;;;13063641;22;20264;-73
2022/09/30 05:26:03;;;;;;;43.90;27.03;;;;;6.00;100429.00;;;;13064120;22;20168;-73
2022/09/30 05:31:12;;;;;;;44.73;27.43;;;;;6.00;100440.00;;;;13018038;22;20427;-73
2022/09/30 05:36:15;;;;;;;46.70;28.97;;;;;5.90;100435.00;;;;13063792;22;20635;-72
2022/09/30 05:41:18;;;;;;;44.13;27.50;;;;;5.90;100436.00;;;;13088278;22;20163;-72
2022/09/30 05:46:19;;;;;;;50.73;31.17;;;;;5.90;100446.00;;;;13015790;22;20168;-73
2022/09/30 05:51:21;;;;;;;57.03;32.33;;;;;6.00;100445.00;;;;13016860;22;20206;-73
2022/09/30 05:56:22;;;;;;;50.33;32.53;;;;;6.10;100451.00;;;;13064803;22;20184;-73
2022/09/30 06:01:23;;;;;;;53.60;33.97;;;;;6.20;100445.00;;;;13088833;22;20160;-73
2022/09/30 06:06:25;;;;;;;57.80;34.63;;;;;6.30;100463.00;;;;13068373;22;20231;-73
2022/09/30 06:11:26;;;;;;;63.37;36.97;;;;;6.50;100460.00;;;;13040823;22;20500;-73
2022/09/30 06:16:27;;;;;;;61.00;37.60;;;;;6.70;100466.00;;;;13042850;22;20198;-73
2022/09/30 06:21:29;;;;;;;66.40;38.53;;;;;6.90;100462.00;;;;13067578;22;20359;-73
2022/09/30 06:26:30;;;;;;;71.53;42.40;;;;;7.20;100471.00;;;;13063894;22;20164;-73
2022/09/30 06:31:31;;;;;;;69.37;41.17;;;;;7.40;100466.00;;;;13089599;22;20171;-73
2022/09/30 06:36:33;;;;;;;67.10;42.53;;;;;7.60;100476.00;;;;13039319;22;20184;-72
2022/09/30 06:41:36;;;;;;;70.07;42.23;;;;;7.80;100476.00;;;;13062221;22;20163;-73
2022/09/30 06:46:38;;;;;;;66.43;41.73;;;;;8.00;100482.00;;;;13042290;22;20186;-73
2022/09/30 06:51:53;;;;;;;65.80;41.07;;;;;8.10;100488.00;;;;13041647;22;20198;-73
2022/09/30 06:56:56;;;;;;;66.23;40.97;;;;;8.30;100485.00;;;;13089609;22;20183;-73
2022/09/30 07:01:57;;;;;;;61.00;39.63;;;;;8.60;100487.00;;;;13041513;22;20180;-73
2022/09/30 07:06:58;;;;;;;63.27;40.63;;;;;8.90;100481.00;;;;13040734;22;20195;-73
2022/09/30 07:11:59;;;;;;;65.23;40.57;;;;;9.20;100479.00;;;;13041576;22;20194;-73
2022/09/30 07:17:03;;;;;;;57.00;38.73;;;;;9.50;100489.00;;;;13089052;22;20191;-73
2022/09/30 07:27:26;;;;;;;50.43;35.50;;;;;10.10;100488.00;;;;13114974;22;20163;-73
2022/09/30 07:32:27;;;;;;;55.63;38.23;;;;;10.40;100488.00;;;;13015422;22;20183;-73
2022/09/30 07:37:32;;;;;;;44.63;32.77;;;;;10.60;100481.00;;;;13041429;22;20276;-73
2022/09/30 07:42:37;;;;;;;45.27;32.40;;;;;10.80;100477.00;;;;13085010;22;20160;-73
2022/09/30 07:47:38;;;;;;;45.50;32.93;;;;;11.10;100481.00;;;;13039267;22;20167;-73
2022/09/30 07:52:40;;;;;;;39.20;30.60;;;;;11.40;100480.00;;;;13009267;22;20168;-73
2022/09/30 07:57:41;;;;;;;41.67;29.90;;;;;11.70;100485.00;;;;13084462;22;20190;-73
2022/09/30 08:02:42;;;;;;;35.57;26.47;;;;;12.00;100476.00;;;;13059528;22;20163;-73
2022/09/30 08:07:44;;;;;;;30.90;23.90;;;;;12.30;100476.00;;;;13013303;22;20698;-73
2022/09/30 08:12:45;;;;;;;29.97;21.80;;;;;12.70;100488.00;;;;13112253;22;20191;-74
2022/09/30 08:17:46;;;;;;;22.93;18.40;;;;;13.10;100484.00;;;;13080201;22;20212;-73
2022/09/30 08:22:51;;;;;;;19.73;17.60;;;;;13.50;100496.00;;;;13087428;22;20163;-74
2022/09/30 08:27:53;;;;;;;21.63;17.50;;;;;13.90;100485.00;;;;13060178;22;20209;-74
2022/09/30 08:32:54;;;;;;;19.70;15.10;;;;;14.30;100495.00;;;;13085307;22;20581;-74
2022/09/30 08:37:56;;;;;;;14.05;11.73;;;;;14.70;100499.00;;;;13087217;22;20183;-74
2022/09/30 08:43:26;;;;;;;26.73;12.35;;;;;15.10;100500.00;;;;13090778;22;20254;-74
2022/09/30 08:48:49;;;;;;;10.88;8.73;;;;;15.40;100494.00;;;;13086695;22;20164;-74
2022/09/30 08:53:51;;;;;;;10.43;7.20;;;;;15.80;100502.00;;;;13086275;22;20240;-74
2022/09/30 08:58:58;;;;;;;9.40;6.10;;;;;16.10;100498.00;;;;13085530;22;20179;-74
2022/09/30 09:04:02;;;;;;;10.30;5.57;;;;;16.40;100505.00;;;;13084825;22;20785;-74
2022/09/30 09:09:41;;;;;;;8.57;4.63;;;;;16.70;100504.00;;;;13086493;22;20206;-74
2022/09/30 09:15:08;;;;;;;7.90;5.10;;;;;17.00;100511.00;;;;12985393;22;20291;-71
2022/09/30 09:20:19;;;;;;;4.55;3.38;;;;;17.20;100522.00;;;;13085407;22;20307;-73
2022/09/30 09:25:28;;;;;;;6.07;3.15;;;;;17.60;100512.00;;;;13015008;22;20195;-76
2022/09/30 09:30:40;;;;;;;4.72;2.50;;;;;17.90;100522.00;;;;13065446;22;20193;-75
2022/09/30 09:35:59;;;;;;;4.38;2.55;;;;;18.20;100520.00;;;;13038964;22;20266;-77
2022/09/30 09:41:16;;;;;;;3.38;2.40;;;;;18.10;100528.00;;;;13039287;22;20171;-76
2022/09/30 09:46:32;;;;;;;2.33;2.10;;;;;18.10;100522.00;;;;13038199;22;20215;-76
2022/09/30 09:51:41;;;;;;;4.82;2.40;;;;;18.20;100531.00;;;;13037936;22;20635;-76
2022/09/30 09:56:42;;;;;;;3.38;1.60;;;;;18.40;100530.00;;;;13030161;22;20188;-72
2022/09/30 10:01:49;;;;;;;4.07;1.90;;;;;18.50;100532.00;;;;13011928;22;20175;-74
2022/09/30 10:07:11;;;;;;;2.63;1.60;;;;;18.70;100539.00;;;;13016610;22;20179;-74
2022/09/30 10:12:13;;;;;;;3.75;1.80;;;;;19.10;100542.00;;;;13088389;22;20179;-74
2022/09/30 10:17:21;;;;;;;2.63;1.52;;;;;19.50;100540.00;;;;13062196;22;20179;-74
2022/09/30 10:22:29;;;;;;;2.70;1.88;;;;;19.90;100548.00;;;;13061236;22;20160;-74
2022/09/30 10:27:33;;;;;;;3.58;2.33;;;;;20.20;100553.00;;;;13015195;22;20167;-74
2022/09/30 10:32:35;;;;;;;6.70;2.63;;;;;20.60;100545.00;;;;13061093;22;20228;-73
2022/09/30 10:37:36;;;;;;;6.13;3.03;;;;;20.70;100554.00;;;;13063805;22;20206;-73
2022/09/30 10:42:40;;;;;;;4.20;3.20;;;;;21.00;100552.00;;;;13086935;22;20164;-73
2022/09/30 10:47:49;;;;;;;4.50;3.78;;;;;21.20;100551.00;;;;13014995;22;20251;-73
2022/09/30 10:52:57;;;;;;;4.78;2.90;;;;;21.20;100546.00;;;;13061527;22;20174;-73
2022/09/30 10:58:30;;;;;;;6.18;3.22;;;;;21.10;100533.00;;;;13088150;22;20191;-73
2022/09/30 11:03:51;;;;;;;4.78;3.10;;;;;21.50;100543.00;;;;13059059;22;20571;-73
2022/09/30 11:09:00;;;;;;;4.88;2.92;;;;;21.70;100555.00;;;;13062622;22;20505;-73
2022/09/30 11:14:28;;;;;;;5.03;2.70;;;;;21.10;100541.00;;;;13035659;22;20479;-73
2022/09/30 11:20:06;;;;;;;5.72;3.38;;;;;21.40;100530.00;;;;13040615;22;20218;-73
2022/09/30 11:25:26;;;;;;;4.65;3.03;;;;;21.60;100533.00;;;;13080355;22;20760;-73
2022/09/30 11:30:56;;;;;;;5.72;3.40;;;;;21.50;100535.00;;;;13065870;22;20205;-73
2022/09/30 11:36:00;;;;;;;4.80;2.90;;;;;22.10;100536.00;;;;13013172;22;20191;-73
2022/09/30 11:41:28;;;;;;;4.50;3.10;;;;;22.50;100527.00;;;;13087165;22;20191;-73
2022/09/30 11:46:50;;;;;;;3.97;2.70;;;;;22.90;100514.00;;;;13039731;22;20178;-73
2022/09/30 11:51:51;;;;;;;7.28;2.58;;;;;22.90;100524.00;;;;13088590;22;20163;-73
2022/09/30 11:57:20;;;;;;;4.75;2.08;;;;;23.00;100514.00;;;;13088014;22;20210;-73
2022/09/30 12:02:36;;;;;;;5.45;2.20;;;;;22.10;100514.00;;;;13112227;22;20164;-73
2022/09/30 12:07:43;;;;;;;4.28;2.22;;;;;21.50;100514.00;;;;13042331;22;20198;-72
2022/09/30 12:12:48;;;;;;;3.30;2.05;;;;;21.20;100509.00;;;;13089181;22;20192;-72
2022/09/30 12:18:08;;;;;;;4.40;2.17;;;;;20.60;100507.00;;;;13015578;22;20589;-72
2022/09/30 12:23:29;;;;;;;3.58;3.00;;;;;19.20;100499.00;;;;13016210;22;20171;-72
2022/09/30 12:35:14;;;;;;;5.07;2.53;;;;;18.10;100507.00;;;;13041626;22;20199;-72
2022/09/30 12:40:38;;;;;;;4.82;2.70;;;;;18.40;100495.00;;;;13032441;22;20203;-72
2022/09/30 12:46:03;;;;;;;3.28;2.50;;;;;18.30;100493.00;;;;13064271;22;20175;-72
2022/09/30 12:51:05;;;;;;;3.97;3.25;;;;;18.30;100483.00;;;;13061988;22;20576;-72
2022/09/30 12:56:10;;;;;;;7.22;3.03;;;;;19.00;100474.00;;;;13061076;22;20190;-72
2022/09/30 13:01:20;;;;;;;3.78;3.13;;;;;20.90;100468.00;;;;13113660;22;20419;-72
2022/09/30 13:06:23;;;;;;;4.40;3.00;;;;;20.00;100477.00;;;;13039397;22;20178;-72
2022/09/30 13:12:12;;;;;;;5.13;2.90;;;;;20.60;100459.00;;;;13060487;22;20179;-72
2022/09/30 13:17:16;;;;;;;5.13;2.85;;;;;21.40;100451.00;;;;13062020;22;20190;-73
2022/09/30 13:22:21;;;;;;;5.85;2.83;;;;;21.20;100436.00;;;;13065408;22;20274;-73
2022/09/30 13:27:50;;;;;;;3.78;3.20;;;;;21.40;100430.00;;;;13039232;22;20172;-73
2022/09/30 13:32:56;;;;;;;4.43;3.08;;;;;21.60;100420.00;;;;13114254;22;20163;-73
2022/09/30 13:38:12;;;;;;;4.53;3.10;;;;;20.80;100419.00;;;;13085859;22;20183;-73
2022/09/30 13:43:23;;;;;;;3.58;2.65;;;;;21.00;100413.00;;;;13063529;22;20241;-72
2022/09/30 13:48:37;;;;;;;3.60;2.50;;;;;22.00;100399.00;;;;13067397;22;20203;-73
2022/09/30 13:53:50;;;;;;;3.67;2.83;;;;;21.40;100396.00;;;;13039571;22;20179;-72
2022/09/30 13:59:28;;;;;;;3.40;3.10;;;;;20.50;100401.00;;;;13088677;22;20183;-72
2022/09/30 14:05:10;;;;;;;8.07;3.10;;;;;20.70;100400.00;;;;13039811;22;20172;-72
2022/09/30 14:11:01;;;;;;;2.92;2.58;;;;;19.30;100393.00;;;;13063325;22;20690;-72
2022/09/30 14:16:24;;;;;;;3.28;2.45;;;;;19.60;100383.00;;;;13042595;22;20193;-72
2022/09/30 14:21:40;;;;;;;3.35;3.00;;;;;19.30;100393.00;;;;13037868;22;20172;-72
2022/09/30 14:27:00;;;;;;;7.22;3.55;;;;;18.60;100387.00;;;;13062127;22;20209;-72
2022/09/30 14:32:10;;;;;;;3.97;2.40;;;;;18.90;100375.00;;;;13060327;22;20167;-72
2022/09/30 14:37:29;;;;;;;2.55;2.30;;;;;18.70;100371.00;;;;13088423;22;20622;-73
2022/09/30 14:42:34;;;;;;;2.75;2.00;;;;;18.40;100357.00;;;;13062377;22;20167;-72
2022/09/30 14:47:44;;;;;;;5.18;1.98;;;;;18.10;100362.00;;;;13061709;22;20247;-72
2022/09/30 14:52:48;;;;;;;4.75;2.22;;;;;18.00;100370.00;;;;13015403;22;20176;-72
2022/09/30 14:57:49;;;;;;;3.83;1.73;;;;;17.80;100363.00;;;;13013250;22;20241;-72
2022/09/30 15:02:50;;;;;;;2.20;1.75;;;;;17.60;100360.00;;;;13062601;22;20163;-72
2022/09/30 15:07:52;;;;;;;2.20;1.85;;;;;17.30;100365.00;;;;13063269;22;20541;-72
2022/09/30 15:12:54;;;;;;;2.60;1.80;;;;;17.10;100371.00;;;;13015711;22;20622;-72
2022/09/30 15:17:56;;;;;;;1.80;1.70;;;;;16.90;100385.00;;;;13087859;22;20191;-72
2022/09/30 15:23:02;;;;;;;2.50;2.03;;;;;16.80;100384.00;;;;13061957;22;20167;-72
2022/09/30 15:28:05;;;;;;;2.28;2.08;;;;;16.60;100376.00;;;;13116577;22;20178;-72
2022/09/30 15:33:16;;;;;;;1.70;1.60;;;;;16.60;100379.00;;;;13014410;22;20197;-72
2022/09/30 15:38:24;;;;;;;3.80;1.80;;;;;16.50;100391.00;;;;13015495;22;20638;-73
2022/09/30 15:43:31;;;;;;;2.38;1.63;;;;;16.80;100390.00;;;;13089357;22;20206;-72
2022/09/30 15:48:34;;;;;;;3.47;2.17;;;;;16.60;100378.00;;;;13086580;22;20786;-72
2022/09/30 15:53:36;;;;;;;3.72;2.15;;;;;16.30;100391.00;;;;13041161;22;20172;-73
2022/09/30 15:58:38;;;;;;;3.25;1.52;;;;;16.10;100389.00;;;;13035835;22;20194;-72
2022/09/30 16:03:48;;;;;;;5.68;2.50;;;;;15.70;100383.00;;;;13041569;22;20174;-72
2022/09/30 16:08:57;;;;;;;3.72;2.65;;;;;15.50;100378.00;;;;13041758;22;20278;-72
2022/09/30 16:14:01;;;;;;;4.45;2.35;;;;;15.30;100376.00;;;;13039234;22;20262;-72
2022/09/30 16:19:04;;;;;;;4.38;2.20;;;;;15.10;100379.00;;;;13041157;22;20195;-72
2022/09/30 16:24:27;;;;;;;5.53;2.13;;;;;14.90;100372.00;;;;13115187;22;20163;-72
2022/09/30 16:29:28;;;;;;;4.03;2.08;;;;;14.80;100371.00;;;;13014908;22;20175;-72
2022/09/30 16:34:31;;;;;;;1.90;1.80;;;;;14.70;100376.00;;;;13087826;22;20171;-72
2022/09/30 16:39:32;;;;;;;5.47;2.05;;;;;14.50;100372.00;;;;13037856;22;20195;-72
2022/09/30 16:44:34;;;;;;;4.03;1.70;;;;;14.40;100366.00;;;;13041279;22;20722;-72
2022/09/30 16:49:35;;;;;;;2.55;1.88;;;;;14.30;100364.00;;;;13061931;22;20248;-72
2022/09/30 16:54:37;;;;;;;4.20;2.10;;;;;14.10;100356.00;;;;13062024;22;20195;-72
2022/09/30 16:59:38;;;;;;;2.60;1.70;;;;;14.10;100356.00;;;;13039643;22;20204;-72
2022/09/30 17:04:39;;;;;;;3.63;1.80;;;;;14.00;100347.00;;;;13088233;22;20502;-72
2022/09/30 17:09:41;;;;;;;4.57;1.70;;;;;13.90;100344.00;;;;13061643;22;20231;-72
2022/09/30 17:14:43;;;;;;;2.03;1.40;;;;;13.80;100342.00;;;;13062899;22;20193;-71
2022/09/30 17:19:44;;;;;;;1.70;1.57;;;;;13.70;100325.00;;;;12991576;22;20515;-72
2022/09/30 17:24:45;;;;;;;3.80;1.70;;;;;13.70;100319.00;;;;13040194;22;20256;-71
2022/09/30 17:29:47;;;;;;;5.27;1.70;;;;;13.60;100337.00;;;;13116432;22;20690;-72
2022/09/30 17:34:49;;;;;;;2.03;1.77;;;;;13.50;100325.00;;;;13040970;22;20163;-72
2022/09/30 17:39:50;;;;;;;2.83;1.67;;;;;13.30;100332.00;;;;13065713;22;20191;-71
2022/09/30 17:44:51;;;;;;;2.17;1.70;;;;;13.20;100323.00;;;;13011697;22;20827;-71
2022/09/30 17:49:53;;;;;;;3.13;1.83;;;;;13.10;100334.00;;;;13037144;22;20611;-71
2022/09/30 17:54:54;;;;;;;4.80;2.63;;;;;12.90;100333.00;;;;13034776;22;20292;-71
2022/09/30 17:59:57;;;;;;;4.20;1.53;;;;;12.90;100347.00;;;;13059942;22;20197;-71
2022/09/30 18:04:58;;;;;;;2.23;2.00;;;;;12.80;100336.00;;;;13059604;22;20211;-71
2022/09/30 18:10:00;;;;;;;2.87;1.90;;;;;12.70;100325.00;;;;13056207;22;20186;-71
2022/09/30 18:15:03;;;;;;;4.80;2.60;;;;;12.80;100323.00;;;;13086575;22;20618;-71
2022/09/30 18:20:05;;;;;;;3.83;2.63;;;;;12.80;100319.00;;;;13084688;22;20180;-71
2022/09/30 18:25:19;;;;;;;3.43;2.10;;;;;12.80;100323.00;;;;12987244;22;20186;-71
2022/09/30 18:30:21;;;;;;;3.37;2.43;;;;;12.80;100319.00;;;;13037882;22;20179;-71
2022/09/30 18:35:23;;;;;;;4.40;2.90;;;;;12.80;100320.00;;;;13061801;22;20159;-71
2022/09/30 18:40:26;;;;;;;3.10;2.00;;;;;12.90;100306.00;;;;13060588;22;20183;-71
2022/09/30 18:45:29;;;;;;;3.60;2.20;;;;;12.90;100300.00;;;;13034556;22;20198;-71
2022/09/30 18:50:32;;;;;;;4.77;3.00;;;;;13.00;100293.00;;;;13062168;22;20167;-70
2022/09/30 18:55:36;;;;;;;5.27;2.83;;;;;13.00;100296.00;;;;13084813;22;20163;-72
2022/09/30 19:00:38;;;;;;;5.57;2.80;;;;;13.00;100283.00;;;;13086189;22;20242;-72
2022/09/30 19:05:40;;;;;;;4.23;2.97;;;;;13.00;100269.00;;;;13011288;22;20168;-72
2022/09/30 19:10:41;;;;;;;3.50;2.70;;;;;13.00;100263.00;;;;13053899;22;20267;-72
2022/09/30 19:15:42;;;;;;;5.07;2.63;;;;;13.00;100258.00;;;;13055844;22;20594;-72
2022/09/30 19:20:44;;;;;;;4.57;2.97;;;;;13.00;100253.00;;;;13036707;22;20175;-72
2022/09/30 19:25:51;;;;;;;3.60;2.70;;;;;13.00;100247.00;;;;13056051;22;20417;-73
2022/09/30 19:30:54;;;;;;;5.17;2.97;;;;;13.00;100243.00;;;;13036209;22;20553;-73
2022/09/30 19:36:04;;;;;;;6.20;3.50;;;;;13.00;100244.00;;;;13008890;22;20171;-72
2022/09/30 19:41:16;;;;;;;4.07;3.67;;;;;13.00;100247.00;;;;13057951;22;20162;-72
2022/09/30 19:46:20;;;;;;;5.53;2.90;;;;;13.00;100239.00;;;;13035240;22;20263;-72
2022/09/30 19:51:22;;;;;;;4.23;3.10;;;;;13.10;100217.00;;;;13059609;22;20162;-72
2022/09/30 19:56:23;;;;;;;5.50;3.10;;;;;13.10;100203.00;;;;13080692;22;20191;-73
2022/09/30 20:01:28;;;;;;;3.53;2.90;;;;;13.10;100190.00;;;;13010861;22;20163;-72
2022/09/30 20:06:32;;;;;;;7.27;3.43;;;;;13.10;100184.00;;;;13058076;22;20247;-72
2022/09/30 20:11:35;;;;;;;3.77;2.60;;;;;13.10;100181.00;;;;13057556;22;20183;-72
2022/09/30 20:16:38;;;;;;;5.30;3.00;;;;;13.10;100162.00;;;;12983844;22;20258;-73
2022/09/30 20:21:42;;;;;;;6.00;2.60;;;;;13.10;100161.00;;;;13011483;22;20228;-72
2022/09/30 20:26:45;;;;;;;6.30;2.53;;;;;13.20;100152.00;;;;13010215;22;20168;-72
2022/09/30 20:31:47;;;;;;;2.67;2.40;;;;;13.20;100144.00;;;;13009859;22;20267;-72
2022/09/30 20:36:49;;;;;;;3.20;2.30;;;;;13.20;100135.00;;;;13008119;22;20188;-73
2022/09/30 20:41:54;;;;;;;2.93;2.40;;;;;13.20;100129.00;;;;13035647;22;20587;-72
2022/09/30 20:46:56;;;;;;;5.43;2.67;;;;;13.20;100132.00;;;;13032516;22;20295;-72
2022/09/30 20:52:02;;;;;;;2.37;1.90;;;;;13.30;100123.00;;;;13033375;22;20171;-71
2022/09/30 20:57:03;;;;;;;3.50;2.87;;;;;13.30;100126.00;;;;13006599;22;20694;-72
2022/09/30 21:02:12;;;;;;;5.23;1.90;;;;;13.40;100119.00;;;;13033468;22;20171;-72
2022/09/30 21:07:14;;;;;;;4.10;1.87;;;;;13.40;100119.00;;;;13056536;22;20251;-73
2022/09/30 21:12:16;;;;;;;3.63;1.90;;;;;13.40;100113.00;;;;13034078;22;20245;-73
2022/09/30 21:17:17;;;;;;;3.13;1.97;;;;;13.20;100120.00;;;;13011015;22;20198;-73
2022/09/30 21:22:18;;;;;;;5.00;2.27;;;;;13.00;100110.00;;;;13009110;22;20721;-73
2022/09/30 21:27:19;;;;;;;2.37;2.17;;;;;12.70;100099.00;;;;13009514;22;20195;-73
2022/09/30 21:32:20;;;;;;;2.57;2.37;;;;;12.50;100094.00;;;;13014337;22;20270;-73
2022/09/30 21:37:22;;;;;;;4.93;2.53;;;;;12.30;100101.00;;;;13058667;22;20194;-72
2022/09/30 21:42:23;;;;;;;8.90;3.17;;;;;12.00;100101.00;;;;13059326;22;20163;-73
2022/09/30 21:47:24;;;;;;;3.57;2.60;;;;;11.80;100103.00;;;;13058834;22;20205;-73
2022/09/30 21:52:25;;;;;;;8.30;3.43;;;;;11.70;100115.00;;;;13085786;22;20163;-73
2022/09/30 21:57:33;;;;;;;4.60;2.83;;;;;11.50;100108.00;;;;13039049;22;20191;-73
2022/09/30 22:02:35;;;;;;;5.27;3.10;;;;;11.40;100118.00;;;;13061915;22;20356;-72
2022/09/30 22:07:37;;;;;;;4.07;2.77;;;;;11.30;100115.00;;;;13088826;22;20167;-73
2022/09/30 22:12:38;;;;;;;4.87;2.97;;;;;11.20;100115.00;;;;13041319;22;20862;-73
2022/09/30 22:17:40;;;;;;;3.63;3.07;;;;;11.20;100126.00;;;;13089372;22;20221;-73
2022/09/30 22:22:41;;;;;;;7.33;3.97;;;;;11.10;100107.00;;;;13017009;22;20197;-73
2022/09/30 22:27:42;;;;;;;6.27;3.77;;;;;11.10;100101.00;;;;13116503;22;20483;-73
2022/09/30 22:32:44;;;;;;;5.30;4.07;;;;;11.00;100104.00;;;;13086166;22;20155;-73
2022/09/30 22:43:08;;;;;;;6.57;3.77;;;;;11.00;100076.00;;;;13116001;22;20554;-73
2022/09/30 22:48:10;;;;;;;5.80;3.77;;;;;10.90;100051.00;;;;13114358;22;20161;-73
2022/09/30 22:53:11;;;;;;;9.60;4.30;;;;;10.90;100037.00;;;;13041155;22;20600;-73
2022/09/30 22:58:12;;;;;;;8.57;4.27;;;;;10.80;100035.00;;;;13041585;22;20822;-73
2022/09/30 23:03:13;;;;;;;7.53;4.43;;;;;10.80;100025.00;;;;13089730;22;20212;-73
2022/09/30 23:08:14;;;;;;;4.50;4.10;;;;;10.80;100031.00;;;;13041926;22;20179;-72
2022/09/30 23:13:18;;;;;;;6.27;4.33;;;;;10.80;100025.00;;;;13088730;22;20160;-73
2022/09/30 23:18:20;;;;;;;6.90;4.30;;;;;10.80;99996.00;;;;13067285;22;20673;-72
2022/09/30 23:23:21;;;;;;;5.23;4.50;;;;;10.80;99984.00;;;;13015617;22;20167;-73
2022/09/30 23:28:22;;;;;;;6.67;4.50;;;;;10.80;99969.00;;;;13014540;22;20193;-72
2022/09/30 23:33:24;;;;;;;8.13;5.67;;;;;10.70;99965.00;;;;13062746;22;20618;-73
2022/09/30 23:38:25;;;;;;;7.67;4.20;;;;;10.70;99947.00;;;;13088895;22;20190;-73
2022/09/30 23:43:29;;;;;;;5.70;4.67;;;;;10.70;99945.00;;;;13088762;22;20164;-73
2022/09/30 23:48:33;;;;;;;5.33;3.93;;;;;10.70;99902.00;;;;13040387;22;20176;-73
2022/09/30 23:53:34;;;;;;;7.57;5.27;;;;;10.70;99833.00;;;;13013315;22;20171;-73
2022/09/30 23:58:35;;;;;;;5.20;4.37;;;;;10.70;99881.00;;;;13063587;22;20233;-73
